createdAt,value
2022-10-18T00:00:26.879Z,5.22
2022-10-18T00:03:54.954Z,4.10
2022-10-18T00:06:59.877Z,3.22
2022-10-18T00:10:08.277Z,2.95
2022-10-18T00:13:13.151Z,2.63
2022-10-18T00:16:19.131Z,2.88
2022-10-18T00:19:26.027Z,2.72
2022-10-18T00:22:34.002Z,3.67
2022-10-18T00:25:41.572Z,3.30
2022-10-18T00:28:47.558Z,3.22
2022-10-18T00:31:52.490Z,2.42
2022-10-18T00:35:00.550Z,3.60
2022-10-18T00:38:05.400Z,3.20
2022-10-18T00:41:14.325Z,3.08
2022-10-18T00:44:47.441Z,2.85
2022-10-18T00:47:54.830Z,3.00
2022-10-18T00:50:59.715Z,2.95
2022-10-18T00:54:06.008Z,2.67
2022-10-18T00:57:13.706Z,3.17
2022-10-18T01:00:19.061Z,2.97
2022-10-18T01:03:24.050Z,2.53
2022-10-18T01:06:31.329Z,2.80
2022-10-18T01:09:39.563Z,2.63
2022-10-18T01:12:52.123Z,2.40
2022-10-18T01:16:01.157Z,2.63
2022-10-18T01:19:09.821Z,3.10
2022-10-18T01:22:18.631Z,3.05
2022-10-18T01:25:32.683Z,3.85
2022-10-18T01:28:46.433Z,4.10
2022-10-18T01:31:58.904Z,4.53
2022-10-18T01:35:06.253Z,4.18
2022-10-18T01:38:17.233Z,4.68
2022-10-18T01:41:23.207Z,4.00
2022-10-18T01:44:29.537Z,3.70
2022-10-18T01:47:37.366Z,4.00
2022-10-18T01:50:42.730Z,5.03
2022-10-18T01:53:47.646Z,3.95
2022-10-18T01:56:56.663Z,3.33
2022-10-18T02:00:03.286Z,4.30
2022-10-18T02:03:13.976Z,4.50
2022-10-18T02:06:26.505Z,4.18
2022-10-18T02:09:35.651Z,3.97
2022-10-18T02:12:43.923Z,3.80
2022-10-18T02:15:50.160Z,4.25
2022-10-18T02:18:59.566Z,4.15
2022-10-18T02:22:05.029Z,3.08
2022-10-18T02:25:12.826Z,4.07
2022-10-18T02:28:18.382Z,3.30
2022-10-18T02:31:26.414Z,3.50
2022-10-18T02:34:36.593Z,3.10
2022-10-18T02:37:42.793Z,3.28
2022-10-18T02:40:47.994Z,3.30
2022-10-18T02:43:52.959Z,3.20
2022-10-18T02:46:58.455Z,3.80
2022-10-18T02:50:06.022Z,3.38
2022-10-18T02:53:11.651Z,3.40
2022-10-18T02:56:16.769Z,4.10
2022-10-18T02:59:22.012Z,3.80
2022-10-18T03:02:26.922Z,4.05
2022-10-18T03:05:34.728Z,4.35
2022-10-18T03:08:39.601Z,4.47
2022-10-18T03:11:44.924Z,4.53
2022-10-18T03:14:49.791Z,4.38
2022-10-18T03:17:55.102Z,4.75
2022-10-18T03:21:02.593Z,5.00
2022-10-18T03:24:08.532Z,4.97
2022-10-18T03:27:13.450Z,4.07
2022-10-18T03:30:18.638Z,3.45
2022-10-18T03:33:23.494Z,3.65
2022-10-18T03:36:32.690Z,3.25
2022-10-18T03:39:37.561Z,3.63
2022-10-18T03:42:42.904Z,3.22
2022-10-18T03:45:49.021Z,3.10
2022-10-18T03:48:54.241Z,2.92
2022-10-18T03:52:01.794Z,2.92
2022-10-18T03:55:07.373Z,2.80
2022-10-18T03:58:12.309Z,2.88
2022-10-18T04:01:17.654Z,2.90
2022-10-18T04:04:22.833Z,2.90
2022-10-18T04:07:30.667Z,4.00
2022-10-18T04:10:35.606Z,3.00
2022-10-18T04:13:43.531Z,2.97
2022-10-18T04:16:48.535Z,2.85
2022-10-18T04:19:53.774Z,3.13
2022-10-18T04:23:01.298Z,3.60
2022-10-18T04:26:06.674Z,2.55
2022-10-18T04:29:11.691Z,2.58
2022-10-18T04:32:17.048Z,3.25
2022-10-18T04:35:26.131Z,2.67
2022-10-18T04:38:34.054Z,3.53
2022-10-18T04:41:40.496Z,3.22
2022-10-18T04:44:46.053Z,3.85
2022-10-18T04:47:51.379Z,3.20
2022-10-18T04:50:56.806Z,2.85
2022-10-18T04:54:04.308Z,4.47
2022-10-18T04:57:09.620Z,3.88
2022-10-18T05:00:16.505Z,3.95
2022-10-18T05:03:22.634Z,3.80
2022-10-18T05:06:27.592Z,3.95
2022-10-18T05:09:35.612Z,3.33
2022-10-18T05:12:40.619Z,3.97
2022-10-18T05:15:49.332Z,4.03
2022-10-18T05:18:55.631Z,4.47
2022-10-18T05:22:04.497Z,3.58
2022-10-18T05:25:13.370Z,4.15
2022-10-18T05:28:39.617Z,5.20
2022-10-18T05:31:44.339Z,4.50
2022-10-18T05:34:51.344Z,4.03
2022-10-18T05:37:56.602Z,4.82
2022-10-18T05:41:07.435Z,4.68
2022-10-18T05:44:12.832Z,4.10
2022-10-18T05:47:18.581Z,4.35
2022-10-18T05:50:25.251Z,5.03
2022-10-18T05:53:38.358Z,4.80
2022-10-18T05:56:46.363Z,4.15
2022-10-18T05:59:51.670Z,5.43
2022-10-18T06:03:00.149Z,4.80
2022-10-18T06:06:07.912Z,5.55
2022-10-18T06:09:15.167Z,4.40
2022-10-18T06:12:23.002Z,4.55
2022-10-18T06:15:29.315Z,5.18
2022-10-18T06:18:35.859Z,5.05
2022-10-18T06:21:42.022Z,4.45
2022-10-18T06:24:47.910Z,4.68
2022-10-18T06:27:55.659Z,3.47
2022-10-18T06:31:01.585Z,4.97
2022-10-18T06:34:06.494Z,4.68
2022-10-18T06:37:12.228Z,5.05
2022-10-18T06:40:17.294Z,4.90
2022-10-18T06:43:26.617Z,5.10
2022-10-18T06:46:34.081Z,4.82
2022-10-18T06:49:39.307Z,4.80
2022-10-18T06:52:45.291Z,5.50
2022-10-18T06:55:52.989Z,4.60
2022-10-18T06:59:03.977Z,5.85
2022-10-18T07:02:09.458Z,5.90
2022-10-18T07:05:15.854Z,5.55
2022-10-18T07:08:24.610Z,6.05
2022-10-18T07:11:29.774Z,5.25
2022-10-18T07:14:37.707Z,5.88
2022-10-18T07:17:42.757Z,5.22
2022-10-18T07:20:48.377Z,6.10
2022-10-18T07:23:54.010Z,4.90
2022-10-18T07:26:59.301Z,4.63
2022-10-18T07:30:07.324Z,4.97
2022-10-18T07:33:13.387Z,5.22
2022-10-18T07:36:18.693Z,5.30
2022-10-18T07:39:25.181Z,5.13
2022-10-18T07:42:30.174Z,4.90
2022-10-18T07:45:44.587Z,5.20
2022-10-18T07:48:49.735Z,4.78
2022-10-18T07:51:55.271Z,5.03
2022-10-18T07:55:05.040Z,4.70
2022-10-18T07:58:10.803Z,4.25
2022-10-18T08:01:18.806Z,4.05
2022-10-18T08:04:24.199Z,3.97
2022-10-18T08:07:33.324Z,3.78
2022-10-18T08:10:39.023Z,3.78
2022-10-18T08:13:44.294Z,3.75
2022-10-18T08:16:52.519Z,3.67
2022-10-18T08:20:11.545Z,3.42
2022-10-18T08:23:21.036Z,3.70
2022-10-18T08:26:26.512Z,3.03
2022-10-18T08:29:32.269Z,3.28
2022-10-18T08:32:40.043Z,3.28
2022-10-18T08:35:45.485Z,2.75
2022-10-18T08:38:51.020Z,3.30
2022-10-18T08:42:11.106Z,3.83
2022-10-18T08:45:37.339Z,4.20
2022-10-18T08:48:52.730Z,3.28
2022-10-18T08:51:58.587Z,2.85
2022-10-18T08:55:05.314Z,3.72
2022-10-18T08:58:18.273Z,3.00
2022-10-18T09:01:39.014Z,3.58
2022-10-18T09:04:55.584Z,3.72
2022-10-18T09:08:11.616Z,3.28
2022-10-18T09:11:27.451Z,3.92
2022-10-18T09:14:45.339Z,3.20
2022-10-18T09:17:56.220Z,3.50
2022-10-18T09:21:08.611Z,3.33
2022-10-18T09:24:15.961Z,3.42
2022-10-18T09:27:22.862Z,3.67
2022-10-18T09:30:59.919Z,4.18
2022-10-18T09:34:09.034Z,4.03
2022-10-18T09:37:19.741Z,3.47
2022-10-18T09:43:37.891Z,4.20
2022-10-18T09:46:48.043Z,4.07
2022-10-18T09:49:54.987Z,3.90
2022-10-18T09:53:09.873Z,3.92
2022-10-18T09:56:18.148Z,3.53
2022-10-18T09:59:38.665Z,3.83
2022-10-18T10:02:43.710Z,3.58
2022-10-18T10:05:49.435Z,3.15
2022-10-18T10:09:01.523Z,3.60
2022-10-18T10:12:26.623Z,3.78
2022-10-18T10:15:36.981Z,3.78
2022-10-18T10:18:47.123Z,3.40
2022-10-18T10:21:53.509Z,3.50
2022-10-18T10:25:02.818Z,3.40
2022-10-18T10:28:09.915Z,3.58
2022-10-18T10:31:29.891Z,3.55
2022-10-18T10:34:35.121Z,4.35
2022-10-18T10:37:43.435Z,4.32
2022-10-18T10:40:54.747Z,4.38
2022-10-18T10:44:00.120Z,5.05
2022-10-18T10:47:05.571Z,5.03
2022-10-18T10:50:14.146Z,4.78
2022-10-18T10:53:41.136Z,6.03
2022-10-18T10:57:01.120Z,5.28
2022-10-18T11:00:06.866Z,4.95
2022-10-18T11:03:28.638Z,5.15
2022-10-18T11:06:37.110Z,5.30
2022-10-18T11:09:48.345Z,5.68
2022-10-18T11:13:01.625Z,5.03
2022-10-18T11:16:10.266Z,5.40
2022-10-18T11:19:26.407Z,4.25
2022-10-18T11:22:37.019Z,5.07
2022-10-18T11:26:05.735Z,5.20
2022-10-18T11:29:26.911Z,5.15
2022-10-18T11:32:38.318Z,5.18
2022-10-18T11:35:50.304Z,4.97
2022-10-18T11:38:58.721Z,4.90
2022-10-18T11:42:07.369Z,3.05
2022-10-18T11:45:17.814Z,4.95
2022-10-18T11:48:34.066Z,3.78
2022-10-18T11:52:06.847Z,3.78
2022-10-18T11:55:19.553Z,3.95
2022-10-18T11:58:37.922Z,4.60
2022-10-18T12:01:47.323Z,3.83
2022-10-18T12:08:32.542Z,4.32
2022-10-18T12:11:46.880Z,4.13
2022-10-18T12:14:54.219Z,3.65
2022-10-18T12:18:01.466Z,3.90
2022-10-18T12:21:10.102Z,4.20
2022-10-18T12:24:19.842Z,3.90
2022-10-18T12:27:30.610Z,3.17
2022-10-18T12:30:40.546Z,3.53
2022-10-18T12:33:47.802Z,3.78
2022-10-18T12:40:18.873Z,4.50
2022-10-18T12:43:32.650Z,5.35
2022-10-18T12:46:59.954Z,4.00
2022-10-18T12:50:07.287Z,4.65
2022-10-18T12:53:31.812Z,3.92
2022-10-18T12:56:42.405Z,3.67
2022-10-18T12:59:48.489Z,4.13
2022-10-18T13:03:13.746Z,4.30
2022-10-18T13:06:21.383Z,4.38
2022-10-18T13:09:28.488Z,4.93
2022-10-18T13:12:51.238Z,4.57
2022-10-18T13:15:57.801Z,4.32
2022-10-18T13:19:05.454Z,5.72
2022-10-18T13:22:20.467Z,5.93
2022-10-18T13:25:34.344Z,5.80
2022-10-18T13:28:46.105Z,6.03
2022-10-18T13:31:55.303Z,5.22
2022-10-18T13:35:02.449Z,6.10
2022-10-18T13:38:08.978Z,7.03
2022-10-18T13:41:14.636Z,5.75
2022-10-18T13:44:32.098Z,6.03
2022-10-18T13:47:39.554Z,7.00
2022-10-18T13:50:46.254Z,6.20
2022-10-18T13:53:56.366Z,5.60
2022-10-18T13:57:16.194Z,4.78
2022-10-18T14:00:33.714Z,5.88
2022-10-18T14:04:03.217Z,5.82
2022-10-18T14:07:09.214Z,4.95
2022-10-18T14:10:20.355Z,4.47
2022-10-18T14:13:30.436Z,5.43
2022-10-18T14:16:42.642Z,4.90
2022-10-18T14:19:49.753Z,5.93
2022-10-18T14:22:58.074Z,5.88
2022-10-18T14:26:10.957Z,4.90
2022-10-18T14:29:23.381Z,3.97
2022-10-18T14:32:33.092Z,5.75
2022-10-18T14:35:42.455Z,5.90
2022-10-18T14:38:51.811Z,5.90
2022-10-18T14:41:58.565Z,6.55
2022-10-18T14:45:04.179Z,5.68
2022-10-18T14:48:20.769Z,6.15
2022-10-18T14:51:26.171Z,6.10
2022-10-18T14:54:46.290Z,5.90
2022-10-18T14:57:58.794Z,6.00
2022-10-18T15:01:05.800Z,5.68
2022-10-18T15:04:14.978Z,4.75
2022-10-18T15:07:24.416Z,4.63
2022-10-18T15:10:31.637Z,4.90
2022-10-18T15:16:59.593Z,4.63
2022-10-18T15:20:21.612Z,4.80
2022-10-18T15:23:29.689Z,5.68
2022-10-18T15:26:35.758Z,4.93
2022-10-18T15:29:43.342Z,5.07
2022-10-18T15:32:53.974Z,5.47
2022-10-18T15:36:10.616Z,5.53
2022-10-18T15:39:18.991Z,5.07
2022-10-18T15:42:44.794Z,5.53
2022-10-18T15:45:50.619Z,4.90
2022-10-18T15:48:56.063Z,4.90
2022-10-18T15:52:36.684Z,4.97
2022-10-18T15:55:50.007Z,4.80
2022-10-18T16:02:05.832Z,5.00
2022-10-18T16:05:16.904Z,5.32
2022-10-18T16:08:25.791Z,5.55
2022-10-18T16:11:31.194Z,4.88
2022-10-18T16:14:38.634Z,5.20
2022-10-18T16:17:45.702Z,6.05
2022-10-18T16:20:52.539Z,5.82
2022-10-18T16:24:02.297Z,3.83
2022-10-18T16:27:07.769Z,5.22
2022-10-18T16:30:15.054Z,4.00
2022-10-18T16:33:21.627Z,4.40
2022-10-18T16:36:29.279Z,3.95
2022-10-18T16:39:37.225Z,3.83
2022-10-18T16:42:45.259Z,3.95
2022-10-18T16:45:50.562Z,3.40
2022-10-18T16:48:56.328Z,4.65
2022-10-18T16:52:01.574Z,3.88
2022-10-18T16:55:16.384Z,3.83
2022-10-18T17:01:47.102Z,3.72
2022-10-18T17:04:51.998Z,3.72
2022-10-18T17:07:57.315Z,3.85
2022-10-18T17:11:05.178Z,3.83
2022-10-18T17:14:11.407Z,4.30
2022-10-18T17:17:16.826Z,3.72
2022-10-18T17:20:24.202Z,3.40
2022-10-18T17:23:30.761Z,3.25
2022-10-18T17:26:38.642Z,3.25
2022-10-18T17:29:46.837Z,3.30
2022-10-18T17:32:54.711Z,3.05
2022-10-18T17:36:00.574Z,3.30
2022-10-18T17:39:07.273Z,3.42
2022-10-18T17:42:15.478Z,3.53
2022-10-18T17:45:21.491Z,3.30
2022-10-18T17:48:29.262Z,3.30
2022-10-18T17:51:35.251Z,2.90
2022-10-18T17:54:40.954Z,2.33
2022-10-18T17:57:49.804Z,3.45
2022-10-18T18:00:54.882Z,3.25
2022-10-18T18:04:04.546Z,2.65
2022-10-18T18:07:11.061Z,2.03
2022-10-18T18:10:17.709Z,2.60
2022-10-18T18:13:31.894Z,2.38
2022-10-18T18:16:42.626Z,2.20
2022-10-18T18:23:13.586Z,2.30
2022-10-18T18:26:18.572Z,3.47
2022-10-18T18:29:29.770Z,2.47
2022-10-18T18:32:35.313Z,2.50
2022-10-18T18:35:41.293Z,2.33
2022-10-18T18:38:46.847Z,2.22
2022-10-18T18:41:58.905Z,2.58
2022-10-18T18:45:08.207Z,2.20
2022-10-18T18:48:19.037Z,2.67
2022-10-18T18:51:26.017Z,2.10
2022-10-18T18:54:34.872Z,2.78
2022-10-18T18:57:40.137Z,1.92
2022-10-18T19:00:48.910Z,2.33
2022-10-18T19:03:55.611Z,2.33
2022-10-18T19:07:01.082Z,2.35
2022-10-18T19:10:06.853Z,2.58
2022-10-18T19:13:12.900Z,2.60
2022-10-18T19:16:25.365Z,1.70
2022-10-18T19:19:31.705Z,2.25
2022-10-18T19:22:38.928Z,3.35
2022-10-18T19:25:46.471Z,2.28
2022-10-18T19:28:53.622Z,2.08
2022-10-18T19:32:05.502Z,2.97
2022-10-18T19:35:10.790Z,2.30
2022-10-18T19:38:16.694Z,1.80
2022-10-18T19:41:21.722Z,2.08
2022-10-18T19:44:28.527Z,2.83
2022-10-18T19:47:38.495Z,2.58
2022-10-18T19:50:51.417Z,2.28
2022-10-18T19:53:59.763Z,5.05
2022-10-18T19:57:05.802Z,3.15
2022-10-18T20:00:17.367Z,2.30
2022-10-18T20:03:30.435Z,2.40
2022-10-18T20:06:37.679Z,2.97
2022-10-18T20:09:48.214Z,2.65
2022-10-18T20:12:57.158Z,2.70
2022-10-18T20:16:07.119Z,2.40
2022-10-18T20:19:18.044Z,2.53
2022-10-18T20:22:37.042Z,2.60
2022-10-18T20:25:42.551Z,2.40
2022-10-18T20:28:50.507Z,2.00
2022-10-18T20:32:00.779Z,3.40
2022-10-18T20:35:11.578Z,1.88
2022-10-18T20:38:26.116Z,1.85
2022-10-18T20:41:41.318Z,2.38
2022-10-18T20:44:55.097Z,2.67
2022-10-18T20:48:07.899Z,2.10
2022-10-18T20:51:18.536Z,2.78
2022-10-18T20:54:24.146Z,2.17
2022-10-18T20:57:31.685Z,1.60
2022-10-18T21:00:40.763Z,1.80
2022-10-18T21:03:49.083Z,1.83
2022-10-18T21:06:58.647Z,1.63
2022-10-18T21:10:04.497Z,2.25
2022-10-18T21:13:15.158Z,1.27
2022-10-18T21:16:26.017Z,1.80
2022-10-18T21:19:40.191Z,1.65
2022-10-18T21:22:57.211Z,1.88
2022-10-18T21:26:08.820Z,1.40
2022-10-18T21:29:21.683Z,2.40
2022-10-18T21:32:31.788Z,1.52
2022-10-18T21:35:43.305Z,1.50
2022-10-18T21:38:56.321Z,1.63
2022-10-18T21:42:05.881Z,1.48
2022-10-18T21:45:16.038Z,1.85
2022-10-18T21:48:27.816Z,1.90
2022-10-18T21:54:42.404Z,2.17
2022-10-18T21:57:49.602Z,1.48
2022-10-18T22:00:57.071Z,2.92
2022-10-18T22:04:05.160Z,1.30
2022-10-18T22:07:11.283Z,1.45
2022-10-18T22:10:23.631Z,2.10
2022-10-18T22:13:29.288Z,2.10
2022-10-18T22:16:38.890Z,2.05
2022-10-18T22:19:49.579Z,1.50
2022-10-18T22:22:56.944Z,1.67
2022-10-18T22:26:09.880Z,1.42
2022-10-18T22:29:18.762Z,1.27
2022-10-18T22:32:25.337Z,1.20
2022-10-18T22:35:38.850Z,1.92
2022-10-18T22:38:44.909Z,1.35
2022-10-18T22:41:56.867Z,1.30
2022-10-18T22:45:02.347Z,1.40
2022-10-18T22:48:08.775Z,1.83
2022-10-18T22:51:14.675Z,2.42
2022-10-18T22:54:20.407Z,1.42
2022-10-18T22:57:36.648Z,1.65
2022-10-18T23:01:09.439Z,1.63
2022-10-18T23:04:29.947Z,1.63
2022-10-18T23:07:35.876Z,1.70
2022-10-18T23:10:42.989Z,1.40
2022-10-18T23:13:52.001Z,1.63
2022-10-18T23:16:58.202Z,1.60
2022-10-18T23:20:03.926Z,1.48
2022-10-18T23:23:09.863Z,1.20
2022-10-18T23:26:16.594Z,1.38
2022-10-18T23:29:27.238Z,1.30
2022-10-18T23:32:33.961Z,1.25
2022-10-18T23:35:40.128Z,1.27
2022-10-18T23:38:48.523Z,2.10
2022-10-18T23:41:55.256Z,1.60
2022-10-18T23:45:06.251Z,1.63
2022-10-18T23:48:12.135Z,1.65
2022-10-18T23:51:19.665Z,1.60
2022-10-18T23:54:26.150Z,1.52
2022-10-18T23:57:36.770Z,1.50
